Time;durP1;ratioP1;P1;durP2;ratioP2;P2;SDS_P1;SDS_P2;PMS_P1;PMS_P2;Temp;Humidity;BMP_temperature;BMP_pressure;BME280_temperature;BME280_humidity;BME280_pressure;Samples;Min_cycle;Max_cycle;Signal;HPM_P1;HPM_P2
2023/11/03 00:00:37;;;;;;;3.17;1.38;;;;;;;;;;6288250;22;20581;-67
2023/11/03 00:03:06;;;;;;;3.83;1.52;;;;;;;;;;6288990;22;20003;-67
2023/11/03 00:05:31;;;;;;;4.05;1.52;;;;;;;;;;6260881;22;19999;-66
2023/11/03 00:07:57;;;;;;;4.55;1.50;;;;;;;;;;6288022;22;19999;-64
2023/11/03 00:10:25;;;;;;;3.40;1.40;;;;;;;;;;6288102;22;19995;-68
2023/11/03 00:12:50;;;;;;;4.78;1.30;;;;;;;;;;6262390;22;20007;-66
2023/11/03 00:15:17;;;;;;;3.90;1.20;;;;;;;;;;6258086;22;20009;-65
2023/11/03 00:17:42;;;;;;;5.50;1.23;;;;;;;;;;6260326;22;20333;-66
2023/11/03 00:20:08;;;;;;;4.10;1.30;;;;;;;;;;6257034;22;20603;-66
2023/11/03 00:22:33;;;;;;;3.67;1.30;;;;;;;;;;6257922;22;20893;-66
2023/11/03 00:24:59;;;;;;;3.22;1.10;;;;;;;;;;6258465;22;20002;-67
2023/11/03 00:27:25;;;;;;;4.15;1.40;;;;;;;;;;6285607;22;20071;-65
2023/11/03 00:29:50;;;;;;;4.10;1.30;;;;;;;;;;6257617;22;19995;-66
2023/11/03 00:32:18;;;;;;;5.15;1.42;;;;;;;;;;6284009;22;20089;-67
2023/11/03 00:34:47;;;;;;;3.20;1.30;;;;;;;;;;6260042;22;20951;-68
2023/11/03 00:37:12;;;;;;;3.58;1.38;;;;;;;;;;6283030;22;20022;-66
2023/11/03 00:39:39;;;;;;;4.50;1.23;;;;;;;;;;6287135;22;19995;-66
2023/11/03 00:42:04;;;;;;;5.65;1.55;;;;;;;;;;6286391;22;20035;-68
2023/11/03 00:44:29;;;;;;;3.75;1.35;;;;;;;;;;6261123;22;20026;-68
2023/11/03 00:46:55;;;;;;;3.80;1.50;;;;;;;;;;6259614;22;20015;-68
2023/11/03 00:49:20;;;;;;;5.65;1.48;;;;;;;;;;6285866;22;19995;-65
2023/11/03 00:51:48;;;;;;;4.03;1.52;;;;;;;;;;6259552;22;19999;-68
2023/11/03 00:54:14;;;;;;;3.78;1.50;;;;;;;;;;6257303;22;20011;-65
2023/11/03 00:56:40;;;;;;;4.07;1.40;;;;;;;;;;6287700;22;20108;-67
2023/11/03 00:59:07;;;;;;;4.03;1.50;;;;;;;;;;6257190;22;20479;-66
2023/11/03 01:01:33;;;;;;;3.55;1.30;;;;;;;;;;6258864;22;20003;-67
2023/11/03 01:04:01;;;;;;;4.78;1.50;;;;;;;;;;6283782;22;20082;-69
2023/11/03 01:06:26;;;;;;;6.40;1.58;;;;;;;;;;6285730;22;20359;-68
2023/11/03 01:08:54;;;;;;;3.90;1.40;;;;;;;;;;6284918;22;19999;-68
2023/11/03 01:11:20;;;;;;;4.13;1.50;;;;;;;;;;6285509;22;20682;-68
2023/11/03 01:13:45;;;;;;;3.50;1.42;;;;;;;;;;6258485;22;20086;-67
2023/11/03 01:16:10;;;;;;;3.50;1.30;;;;;;;;;;6257674;22;20322;-68
2023/11/03 01:18:39;;;;;;;3.88;1.50;;;;;;;;;;6259168;22;20473;-65
2023/11/03 01:21:12;;;;;;;3.97;1.58;;;;;;;;;;6258953;22;20017;-68
2023/11/03 01:23:41;;;;;;;3.80;1.30;;;;;;;;;;6287669;22;20482;-68
2023/11/03 01:26:08;;;;;;;3.65;1.30;;;;;;;;;;6284985;22;20145;-67
2023/11/03 01:28:34;;;;;;;4.57;1.45;;;;;;;;;;6286281;22;20007;-66
2023/11/03 01:30:59;;;;;;;3.63;1.30;;;;;;;;;;6287169;22;19996;-67
2023/11/03 01:33:27;;;;;;;3.70;1.20;;;;;;;;;;6285430;22;20003;-67
2023/11/03 01:35:52;;;;;;;3.13;1.17;;;;;;;;;;6286644;22;20635;-67
2023/11/03 01:38:17;;;;;;;3.78;1.40;;;;;;;;;;6284356;22;20034;-67
2023/11/03 01:40:43;;;;;;;3.90;1.23;;;;;;;;;;6286474;22;20022;-67
2023/11/03 01:43:09;;;;;;;3.60;1.20;;;;;;;;;;6287410;22;20018;-67
2023/11/03 01:45:37;;;;;;;4.85;1.60;;;;;;;;;;6285335;22;19995;-67
2023/11/03 01:48:02;;;;;;;4.20;1.30;;;;;;;;;;6257834;22;20003;-66
2023/11/03 01:50:28;;;;;;;5.05;1.50;;;;;;;;;;6287516;22;20094;-67
2023/11/03 01:52:53;;;;;;;3.90;1.40;;;;;;;;;;6283833;22;20030;-68
2023/11/03 01:55:19;;;;;;;4.03;1.40;;;;;;;;;;6287745;22;20074;-68
2023/11/03 01:57:44;;;;;;;3.95;1.38;;;;;;;;;;6258511;22;20011;-66
2023/11/03 02:00:13;;;;;;;5.22;1.45;;;;;;;;;;6259934;22;20619;-65
2023/11/03 02:02:39;;;;;;;3.55;1.25;;;;;;;;;;6255407;22;20082;-66
2023/11/03 02:05:04;;;;;;;4.47;1.50;;;;;;;;;;6258641;22;20007;-67
2023/11/03 02:07:30;;;;;;;4.05;1.50;;;;;;;;;;6259535;22;20060;-66
2023/11/03 02:09:55;;;;;;;3.67;1.20;;;;;;;;;;6285063;22;20003;-67
2023/11/03 02:12:21;;;;;;;3.47;1.10;;;;;;;;;;6258859;22;20237;-67
2023/11/03 02:14:49;;;;;;;3.58;1.20;;;;;;;;;;6286592;22;20003;-68
2023/11/03 02:17:14;;;;;;;3.08;1.20;;;;;;;;;;6257737;22;20003;-66
2023/11/03 02:19:40;;;;;;;3.78;1.30;;;;;;;;;;6286480;22;20060;-66
2023/11/03 02:22:06;;;;;;;3.75;1.33;;;;;;;;;;6285467;22;20003;-68
2023/11/03 02:24:31;;;;;;;5.55;1.60;;;;;;;;;;6259136;22;20003;-67
2023/11/03 02:26:56;;;;;;;3.88;1.45;;;;;;;;;;6286990;22;19995;-68
2023/11/03 02:29:22;;;;;;;3.60;1.35;;;;;;;;;;6287380;22;20046;-68
2023/11/03 02:31:48;;;;;;;3.70;1.40;;;;;;;;;;6284098;22;19999;-68
2023/11/03 02:34:13;;;;;;;3.03;1.13;;;;;;;;;;6275210;22;20007;-68
2023/11/03 02:36:39;;;;;;;3.60;1.33;;;;;;;;;;6278330;22;20117;-70
2023/11/03 02:39:04;;;;;;;3.95;1.30;;;;;;;;;;6287656;22;20622;-69
2023/11/03 02:41:29;;;;;;;4.80;1.23;;;;;;;;;;6275622;22;20018;-69
2023/11/03 02:43:54;;;;;;;3.60;1.40;;;;;;;;;;6259001;22;20178;-68
2023/11/03 02:46:20;;;;;;;3.83;1.45;;;;;;;;;;6283005;22;20046;-68
2023/11/03 02:48:45;;;;;;;3.58;1.30;;;;;;;;;;6273124;22;20002;-72
2023/11/03 02:51:11;;;;;;;3.70;1.27;;;;;;;;;;6276041;22;19995;-68
2023/11/03 02:53:39;;;;;;;3.60;1.20;;;;;;;;;;6274220;22;20014;-69
2023/11/03 02:56:04;;;;;;;3.50;1.42;;;;;;;;;;6252747;22;20007;-68
2023/11/03 02:58:39;;;;;;;3.53;1.30;;;;;;;;;;6253578;22;19999;-68
2023/11/03 03:01:10;;;;;;;4.10;1.40;;;;;;;;;;6274391;22;20013;-68
2023/11/03 03:03:35;;;;;;;3.28;1.20;;;;;;;;;;6245615;22;20086;-69
2023/11/03 03:06:01;;;;;;;3.90;1.30;;;;;;;;;;6275375;22;20757;-69
2023/11/03 03:08:26;;;;;;;3.97;1.30;;;;;;;;;;6274363;22;20003;-69
2023/11/03 03:10:51;;;;;;;3.70;1.20;;;;;;;;;;6287241;22;20480;-67
2023/11/03 03:13:16;;;;;;;3.30;1.30;;;;;;;;;;6257688;22;20732;-68
2023/11/03 03:15:42;;;;;;;3.78;1.40;;;;;;;;;;6284106;22;20225;-69
2023/11/03 03:18:09;;;;;;;4.80;1.35;;;;;;;;;;6275015;22;19999;-68
2023/11/03 03:20:35;;;;;;;3.70;1.30;;;;;;;;;;6273261;22;20026;-69
2023/11/03 03:23:01;;;;;;;3.70;1.40;;;;;;;;;;6275207;22;20126;-67
2023/11/03 03:25:31;;;;;;;3.20;1.20;;;;;;;;;;6275261;22;19999;-68
2023/11/03 03:27:58;;;;;;;4.47;2.17;;;;;;;;;;6247543;22;20007;-71
2023/11/03 03:30:24;;;;;;;3.88;1.20;;;;;;;;;;6273235;22;20761;-71
2023/11/03 03:32:49;;;;;;;3.72;1.23;;;;;;;;;;6277728;22;20027;-70
2023/11/03 03:35:15;;;;;;;3.40;1.30;;;;;;;;;;6247070;22;20696;-69
2023/11/03 03:37:40;;;;;;;3.38;1.02;;;;;;;;;;6276780;22;20210;-70
2023/11/03 03:40:08;;;;;;;3.43;1.20;;;;;;;;;;6276427;22;20003;-70
2023/11/03 03:42:34;;;;;;;3.40;1.00;;;;;;;;;;6255778;22;20320;-70
2023/11/03 03:45:02;;;;;;;2.67;0.70;;;;;;;;;;6258301;22;20007;-69
2023/11/03 03:47:30;;;;;;;2.17;0.70;;;;;;;;;;6275603;22;20236;-69
2023/11/03 03:49:58;;;;;;;1.73;0.70;;;;;;;;;;6275830;22;20005;-69
2023/11/03 03:52:23;;;;;;;1.98;0.60;;;;;;;;;;6249685;22;20004;-69
2023/11/03 03:54:48;;;;;;;2.90;0.80;;;;;;;;;;6246846;22;20010;-68
2023/11/03 03:57:16;;;;;;;3.25;0.90;;;;;;;;;;6250125;22;20237;-70
2023/11/03 03:59:41;;;;;;;2.63;0.80;;;;;;;;;;6246260;22;20003;-68
2023/11/03 04:02:07;;;;;;;3.53;0.90;;;;;;;;;;6277844;22;20048;-67
2023/11/03 04:04:32;;;;;;;2.58;0.95;;;;;;;;;;6274958;22;20763;-67
2023/11/03 04:06:58;;;;;;;2.70;0.80;;;;;;;;;;6275048;22;20129;-67
2023/11/03 04:09:28;;;;;;;2.58;0.90;;;;;;;;;;6246490;22;20014;-67
2023/11/03 04:11:53;;;;;;;3.03;0.80;;;;;;;;;;6277350;22;19995;-70
2023/11/03 04:14:18;;;;;;;3.45;0.90;;;;;;;;;;6276165;22;20011;-67
2023/11/03 04:16:44;;;;;;;3.45;0.95;;;;;;;;;;6275322;22;20080;-68
2023/11/03 04:19:10;;;;;;;2.17;0.70;;;;;;;;;;6257569;22;20017;-68
2023/11/03 04:21:35;;;;;;;2.38;0.70;;;;;;;;;;6247485;22;19999;-68
2023/11/03 04:24:03;;;;;;;4.27;0.90;;;;;;;;;;6249019;22;19999;-69
2023/11/03 04:26:30;;;;;;;4.53;0.85;;;;;;;;;;6276379;22;20213;-66
2023/11/03 04:29:00;;;;;;;3.15;0.88;;;;;;;;;;6276026;22;20038;-67
2023/11/03 04:31:26;;;;;;;2.30;0.65;;;;;;;;;;6276285;22;20007;-68
2023/11/03 04:33:53;;;;;;;2.67;0.90;;;;;;;;;;6276443;22;20013;-68
2023/11/03 04:36:19;;;;;;;2.72;0.80;;;;;;;;;;6277557;22;20068;-68
2023/11/03 04:38:44;;;;;;;2.03;0.68;;;;;;;;;;6248288;22;20011;-69
2023/11/03 04:41:12;;;;;;;1.90;0.50;;;;;;;;;;6247906;22;20029;-68
2023/11/03 04:43:44;;;;;;;2.13;0.45;;;;;;;;;;6248976;22;19999;-70
2023/11/03 04:46:09;;;;;;;2.67;0.60;;;;;;;;;;6275962;22;20011;-68
2023/11/03 04:48:38;;;;;;;1.20;0.40;;;;;;;;;;6247445;22;20077;-67
2023/11/03 04:51:08;;;;;;;0.88;0.30;;;;;;;;;;6275036;22;19991;-68
2023/11/03 04:53:34;;;;;;;1.70;0.35;;;;;;;;;;6247458;22;20013;-68
2023/11/03 04:55:59;;;;;;;1.75;0.50;;;;;;;;;;6275229;22;19999;-68
2023/11/03 04:58:25;;;;;;;1.63;0.38;;;;;;;;;;6245615;22;20011;-69
2023/11/03 05:00:51;;;;;;;0.63;0.30;;;;;;;;;;6247043;22;20106;-68
2023/11/03 05:03:16;;;;;;;1.23;0.40;;;;;;;;;;6247231;22;20003;-67
2023/11/03 05:05:42;;;;;;;1.58;0.30;;;;;;;;;;6275936;22;20790;-68
2023/11/03 05:08:08;;;;;;;2.55;0.60;;;;;;;;;;6248775;22;20006;-67
2023/11/03 05:10:33;;;;;;;2.55;0.60;;;;;;;;;;6274630;22;19995;-68
2023/11/03 05:12:59;;;;;;;1.42;0.43;;;;;;;;;;6285250;22;20012;-67
2023/11/03 05:15:25;;;;;;;1.90;0.50;;;;;;;;;;6260154;22;20007;-68
2023/11/03 05:17:52;;;;;;;0.90;0.30;;;;;;;;;;6278701;22;19999;-68
2023/11/03 05:20:20;;;;;;;0.50;0.20;;;;;;;;;;6247769;22;20371;-68
2023/11/03 05:22:46;;;;;;;0.30;0.10;;;;;;;;;;6287159;22;20021;-68
2023/11/03 05:25:12;;;;;;;0.22;0.10;;;;;;;;;;6285966;22;20492;-68
2023/11/03 05:27:38;;;;;;;1.00;0.17;;;;;;;;;;6248003;22;20768;-68
2023/11/03 05:30:03;;;;;;;0.28;0.10;;;;;;;;;;6249529;22;19999;-68
2023/11/03 05:32:29;;;;;;;0.70;0.20;;;;;;;;;;6276927;22;19999;-68
2023/11/03 05:34:56;;;;;;;0.57;0.20;;;;;;;;;;6274716;22;20180;-69
2023/11/03 05:37:21;;;;;;;0.38;0.10;;;;;;;;;;6246864;22;19999;-68
2023/11/03 05:39:52;;;;;;;0.50;0.10;;;;;;;;;;6246643;22;20006;-67
2023/11/03 05:42:17;;;;;;;0.20;0.10;;;;;;;;;;6246450;22;20022;-69
2023/11/03 05:44:42;;;;;;;0.28;0.10;;;;;;;;;;6279534;22;19999;-69
2023/11/03 05:47:08;;;;;;;0.00;0.00;;;;;;;;;;6271788;22;20011;-69
2023/11/03 05:49:35;;;;;;;0.10;0.10;;;;;;;;;;6243443;22;20026;-69
2023/11/03 05:52:03;;;;;;;0.30;0.10;;;;;;;;;;6240374;22;20782;-70
2023/11/03 05:54:29;;;;;;;0.25;0.10;;;;;;;;;;6242452;22;20514;-69
2023/11/03 05:56:56;;;;;;;0.75;0.13;;;;;;;;;;6242083;22;20000;-68
2023/11/03 05:59:22;;;;;;;0.95;0.10;;;;;;;;;;6272373;22;20827;-69
2023/11/03 06:01:47;;;;;;;0.30;0.10;;;;;;;;;;6268416;22;19999;-67
2023/11/03 06:04:12;;;;;;;0.00;0.00;;;;;;;;;;6242369;22;20007;-70
2023/11/03 06:06:38;;;;;;;0.45;0.10;;;;;;;;;;6268956;22;20002;-70
2023/11/03 06:09:05;;;;;;;0.80;0.10;;;;;;;;;;6243030;22;20058;-70
2023/11/03 06:11:36;;;;;;;1.52;0.10;;;;;;;;;;6272943;22;20298;-71
2023/11/03 06:14:01;;;;;;;0.15;0.10;;;;;;;;;;6271894;22;20007;-68
2023/11/03 06:16:26;;;;;;;1.13;0.20;;;;;;;;;;6248902;22;20526;-68
2023/11/03 06:18:51;;;;;;;1.38;0.30;;;;;;;;;;6273872;22;20209;-67
2023/11/03 06:21:17;;;;;;;0.50;0.10;;;;;;;;;;6273587;22;20176;-69
2023/11/03 06:23:42;;;;;;;0.33;0.10;;;;;;;;;;6246460;22;20027;-67
2023/11/03 06:26:07;;;;;;;0.32;0.10;;;;;;;;;;6277484;22;20673;-68
2023/11/03 06:28:33;;;;;;;0.70;0.10;;;;;;;;;;6269237;22;19999;-67
2023/11/03 06:30:58;;;;;;;0.00;0.00;;;;;;;;;;6274606;22;20301;-68
2023/11/03 06:33:26;;;;;;;0.00;0.00;;;;;;;;;;6272332;22;20031;-67
2023/11/03 06:35:53;;;;;;;0.00;0.00;;;;;;;;;;6249880;22;20190;-67
2023/11/03 06:38:19;;;;;;;0.10;0.10;;;;;;;;;;6286325;22;20503;-67
2023/11/03 06:40:44;;;;;;;1.17;0.10;;;;;;;;;;6253297;22;20003;-68
2023/11/03 06:43:09;;;;;;;0.38;0.20;;;;;;;;;;6286658;22;20037;-67
2023/11/03 06:45:35;;;;;;;2.07;0.10;;;;;;;;;;6254342;22;20031;-68
2023/11/03 06:48:02;;;;;;;0.10;0.03;;;;;;;;;;6285208;22;20217;-67
2023/11/03 06:50:28;;;;;;;0.15;0.10;;;;;;;;;;6284977;22;20002;-67
2023/11/03 06:52:54;;;;;;;0.40;0.10;;;;;;;;;;6254634;22;19999;-67
2023/11/03 06:55:20;;;;;;;0.57;0.20;;;;;;;;;;6257101;22;19995;-68
2023/11/03 06:57:47;;;;;;;1.13;0.27;;;;;;;;;;6249365;22;20034;-68
2023/11/03 07:00:13;;;;;;;0.22;0.10;;;;;;;;;;6244529;22;20236;-69
2023/11/03 07:02:38;;;;;;;2.15;0.17;;;;;;;;;;6277275;22;20456;-66
2023/11/03 07:05:04;;;;;;;1.45;0.30;;;;;;;;;;6255729;22;19999;-66
2023/11/03 07:07:29;;;;;;;1.33;0.30;;;;;;;;;;6282243;22;20444;-66
2023/11/03 07:09:59;;;;;;;0.83;0.20;;;;;;;;;;6284342;22;20000;-66
2023/11/03 07:12:24;;;;;;;1.63;0.38;;;;;;;;;;6255206;22;20262;-66
2023/11/03 07:14:50;;;;;;;0.95;0.25;;;;;;;;;;6283916;22;20350;-66
2023/11/03 07:17:18;;;;;;;0.85;0.20;;;;;;;;;;6281907;22;20092;-66
2023/11/03 07:19:43;;;;;;;1.05;0.30;;;;;;;;;;6283181;22;19996;-66
2023/11/03 07:22:08;;;;;;;1.67;0.20;;;;;;;;;;6284221;22;20041;-66
2023/11/03 07:24:34;;;;;;;1.10;0.22;;;;;;;;;;6252444;22;20060;-66
2023/11/03 07:26:59;;;;;;;0.20;0.10;;;;;;;;;;6284793;22;19995;-66
2023/11/03 07:29:27;;;;;;;0.38;0.10;;;;;;;;;;6256374;22;20076;-66
2023/11/03 07:31:54;;;;;;;0.73;0.25;;;;;;;;;;6288714;22;20001;-66
2023/11/03 07:34:22;;;;;;;1.85;0.20;;;;;;;;;;6284933;22;20007;-66
2023/11/03 07:36:49;;;;;;;0.10;0.10;;;;;;;;;;6259727;22;20003;-66
2023/11/03 07:39:15;;;;;;;0.28;0.10;;;;;;;;;;6285025;22;20013;-66
2023/11/03 07:41:41;;;;;;;1.05;0.20;;;;;;;;;;6283808;22;19999;-66
2023/11/03 07:44:06;;;;;;;0.22;0.10;;;;;;;;;;6258212;22;20078;-66
2023/11/03 07:46:33;;;;;;;0.83;0.23;;;;;;;;;;6253500;22;20020;-66
2023/11/03 07:48:58;;;;;;;0.95;0.30;;;;;;;;;;6284562;22;20296;-65
2023/11/03 07:51:27;;;;;;;1.48;0.38;;;;;;;;;;6283946;22;20026;-66
2023/11/03 07:53:53;;;;;;;0.65;0.28;;;;;;;;;;6256535;22;20101;-66
2023/11/03 07:56:21;;;;;;;1.58;0.43;;;;;;;;;;6248986;22;20079;-66
2023/11/03 07:58:46;;;;;;;1.15;0.30;;;;;;;;;;6256715;22;19995;-66
2023/11/03 08:01:13;;;;;;;1.60;0.43;;;;;;;;;;6257149;22;20061;-66
2023/11/03 08:03:38;;;;;;;1.08;0.30;;;;;;;;;;6256931;22;20646;-66
2023/11/03 08:06:05;;;;;;;1.17;0.38;;;;;;;;;;6286600;22;20003;-66
2023/11/03 08:08:30;;;;;;;1.08;0.30;;;;;;;;;;6254450;22;19995;-66
2023/11/03 08:10:56;;;;;;;1.98;0.30;;;;;;;;;;6258810;22;20003;-64
2023/11/03 08:13:23;;;;;;;2.60;0.30;;;;;;;;;;6282725;22;20003;-66
2023/11/03 08:15:49;;;;;;;1.90;0.30;;;;;;;;;;6283546;22;20024;-65
2023/11/03 08:18:14;;;;;;;1.08;0.30;;;;;;;;;;6255986;22;20018;-66
2023/11/03 08:20:41;;;;;;;3.25;1.10;;;;;;;;;;6256246;22;20590;-66
2023/11/03 08:23:09;;;;;;;5.30;1.70;;;;;;;;;;6283992;22;20807;-65
2023/11/03 08:25:34;;;;;;;6.57;2.40;;;;;;;;;;6252770;22;19999;-66
2023/11/03 08:28:00;;;;;;;5.82;2.55;;;;;;;;;;6287152;22;20069;-66
2023/11/03 08:30:25;;;;;;;5.25;1.77;;;;;;;;;;6285151;22;20053;-66
2023/11/03 08:32:53;;;;;;;3.33;1.10;;;;;;;;;;6287805;22;20147;-65
2023/11/03 08:35:21;;;;;;;2.50;0.82;;;;;;;;;;6283727;22;20752;-66
2023/11/03 08:37:52;;;;;;;2.67;0.75;;;;;;;;;;6255312;22;20546;-66
2023/11/03 08:40:18;;;;;;;2.80;0.82;;;;;;;;;;6285254;22;19995;-67
2023/11/03 08:42:44;;;;;;;2.55;0.82;;;;;;;;;;6284338;22;20041;-66
2023/11/03 08:45:10;;;;;;;2.50;0.85;;;;;;;;;;6258462;22;20034;-66
2023/11/03 08:47:36;;;;;;;2.53;0.75;;;;;;;;;;6283295;22;20007;-66
2023/11/03 08:50:02;;;;;;;4.82;0.82;;;;;;;;;;6257643;22;20018;-65
2023/11/03 08:52:27;;;;;;;5.32;1.00;;;;;;;;;;6280722;22;19999;-66
2023/11/03 08:54:56;;;;;;;2.80;0.80;;;;;;;;;;6257918;22;20003;-66
2023/11/03 08:57:22;;;;;;;3.15;0.73;;;;;;;;;;6285933;22;20006;-66
2023/11/03 08:59:47;;;;;;;2.75;0.75;;;;;;;;;;6256161;22;19999;-67
2023/11/03 09:02:13;;;;;;;2.97;0.73;;;;;;;;;;6287744;22;20002;-66
2023/11/03 09:04:41;;;;;;;4.85;1.50;;;;;;;;;;6256668;22;20864;-66
2023/11/03 09:07:07;;;;;;;5.75;1.25;;;;;;;;;;6285797;22;19999;-67
2023/11/03 09:09:33;;;;;;;5.68;1.25;;;;;;;;;;6286982;22;20017;-67
2023/11/03 09:11:58;;;;;;;4.63;1.02;;;;;;;;;;6284095;22;20574;-65
2023/11/03 09:14:25;;;;;;;2.47;0.95;;;;;;;;;;6258530;22;20003;-66
2023/11/03 09:16:50;;;;;;;3.10;1.00;;;;;;;;;;6284929;22;20001;-66
2023/11/03 09:19:16;;;;;;;3.03;0.85;;;;;;;;;;6259922;22;20004;-66
2023/11/03 09:21:43;;;;;;;4.55;1.40;;;;;;;;;;6284019;22;19999;-66
2023/11/03 09:24:09;;;;;;;3.60;1.13;;;;;;;;;;6258805;22;20331;-65
2023/11/03 09:26:34;;;;;;;3.50;1.20;;;;;;;;;;6257007;22;19999;-67
2023/11/03 09:29:02;;;;;;;4.57;1.02;;;;;;;;;;6285696;22;19999;-66
2023/11/03 09:31:28;;;;;;;2.95;1.10;;;;;;;;;;6257911;22;20014;-66
2023/11/03 09:33:55;;;;;;;3.60;1.40;;;;;;;;;;6285885;22;20012;-66
2023/11/03 09:36:20;;;;;;;4.47;1.23;;;;;;;;;;6256815;22;20007;-64
2023/11/03 09:38:46;;;;;;;4.05;1.20;;;;;;;;;;6258433;22;20003;-66
2023/11/03 09:41:13;;;;;;;3.10;1.02;;;;;;;;;;6285741;22;20003;-67
2023/11/03 09:43:40;;;;;;;2.83;1.02;;;;;;;;;;6284948;22;20014;-65
2023/11/03 09:46:08;;;;;;;3.13;0.90;;;;;;;;;;6256592;22;20563;-66
2023/11/03 09:48:33;;;;;;;3.78;1.20;;;;;;;;;;6283149;22;20075;-65
2023/11/03 09:50:59;;;;;;;3.60;1.17;;;;;;;;;;6284764;22;20632;-66
2023/11/03 09:53:29;;;;;;;3.80;1.38;;;;;;;;;;6256842;22;20454;-66
2023/11/03 09:55:55;;;;;;;5.38;1.55;;;;;;;;;;6258689;22;20035;-66
2023/11/03 09:58:21;;;;;;;6.22;1.40;;;;;;;;;;6257042;22;20083;-64
2023/11/03 10:00:46;;;;;;;4.47;1.63;;;;;;;;;;6285129;22;20497;-67
2023/11/03 10:03:12;;;;;;;3.53;1.30;;;;;;;;;;6285980;22;20031;-69
2023/11/03 10:05:37;;;;;;;5.55;1.58;;;;;;;;;;6255871;22;20010;-66
2023/11/03 10:08:03;;;;;;;4.28;1.40;;;;;;;;;;6286211;22;20144;-65
2023/11/03 10:10:29;;;;;;;3.78;1.40;;;;;;;;;;6254647;22;20076;-66
2023/11/03 10:12:57;;;;;;;3.95;1.48;;;;;;;;;;6286639;22;20007;-66
2023/11/03 10:15:23;;;;;;;4.68;1.70;;;;;;;;;;6283353;22;19995;-69
2023/11/03 10:17:49;;;;;;;3.97;1.80;;;;;;;;;;6284246;22;20064;-65
2023/11/03 10:20:15;;;;;;;4.27;1.60;;;;;;;;;;6284930;22;20900;-66
2023/11/03 10:22:40;;;;;;;3.95;1.50;;;;;;;;;;6284976;22;20253;-65
2023/11/03 10:25:09;;;;;;;5.60;1.60;;;;;;;;;;6285993;22;20023;-65
2023/11/03 10:27:37;;;;;;;4.80;1.73;;;;;;;;;;6284417;22;20005;-66
2023/11/03 10:30:06;;;;;;;3.50;1.20;;;;;;;;;;6286136;22;20000;-66
2023/11/03 10:32:35;;;;;;;3.90;1.25;;;;;;;;;;6283455;22;19999;-67
2023/11/03 10:35:05;;;;;;;5.30;1.27;;;;;;;;;;6281067;22;20007;-65
2023/11/03 10:37:34;;;;;;;4.15;1.10;;;;;;;;;;6285431;22;20001;-66
2023/11/03 10:40:00;;;;;;;2.88;1.02;;;;;;;;;;6285115;22;20010;-66
2023/11/03 10:42:26;;;;;;;3.60;1.05;;;;;;;;;;6286021;22;20027;-66
2023/11/03 10:44:54;;;;;;;3.58;1.15;;;;;;;;;;6284707;22;19999;-66
2023/11/03 10:47:22;;;;;;;3.40;1.10;;;;;;;;;;6285437;22;20076;-67
2023/11/03 10:49:51;;;;;;;4.22;1.20;;;;;;;;;;6256840;22;20003;-68
2023/11/03 10:52:28;;;;;;;5.40;1.23;;;;;;;;;;6282714;22;20337;-68
2023/11/03 10:55:06;;;;;;;3.20;1.13;;;;;;;;;;6258032;22;20102;-65
2023/11/03 10:57:32;;;;;;;5.03;0.90;;;;;;;;;;6282545;22;19995;-66
2023/11/03 11:00:17;;;;;;;2.97;0.90;;;;;;;;;;6285285;22;20291;-67
2023/11/03 11:02:57;;;;;;;3.10;0.80;;;;;;;;;;6257864;22;20193;-68
2023/11/03 11:05:35;;;;;;;2.55;0.98;;;;;;;;;;6256985;22;20316;-66
2023/11/03 11:08:04;;;;;;;2.67;0.82;;;;;;;;;;6283725;22;20021;-69
2023/11/03 11:10:42;;;;;;;3.60;1.00;;;;;;;;;;6285147;22;20002;-68
2023/11/03 11:13:17;;;;;;;3.47;0.80;;;;;;;;;;6284372;22;20005;-68
2023/11/03 11:15:48;;;;;;;2.92;0.80;;;;;;;;;;6281959;22;20000;-69
2023/11/03 11:18:14;;;;;;;4.18;0.90;;;;;;;;;;6285529;22;20387;-69
2023/11/03 11:20:43;;;;;;;2.85;0.95;;;;;;;;;;6283591;22;20368;-68
2023/11/03 11:23:13;;;;;;;3.67;0.80;;;;;;;;;;6284971;22;20073;-67
2023/11/03 11:25:40;;;;;;;2.80;0.88;;;;;;;;;;6255658;22;20077;-67
2023/11/03 11:28:28;;;;;;;2.38;0.88;;;;;;;;;;6284765;22;20030;-68
2023/11/03 11:30:56;;;;;;;2.17;0.80;;;;;;;;;;6256342;22;20022;-67
2023/11/03 11:33:26;;;;;;;1.98;0.70;;;;;;;;;;6281138;22;20011;-69
2023/11/03 11:35:51;;;;;;;2.67;0.73;;;;;;;;;;6255861;22;19999;-69
2023/11/03 11:38:16;;;;;;;2.08;0.52;;;;;;;;;;6282856;22;20000;-68
2023/11/03 11:40:41;;;;;;;4.03;0.87;;;;;;;;;;6256596;22;20018;-67
2023/11/03 11:43:10;;;;;;;1.30;0.50;;;;;;;;;;6283325;22;20235;-66
2023/11/03 11:45:37;;;;;;;2.67;0.60;;;;;;;;;;6253781;22;20064;-67
2023/11/03 11:48:07;;;;;;;2.70;0.70;;;;;;;;;;6285122;22;20007;-68
2023/11/03 11:50:32;;;;;;;4.18;0.70;;;;;;;;;;6273673;22;20087;-66
2023/11/03 11:52:59;;;;;;;1.50;0.43;;;;;;;;;;6258361;22;20133;-67
2023/11/03 11:55:25;;;;;;;3.33;0.50;;;;;;;;;;6284219;22;20079;-66
2023/11/03 11:57:51;;;;;;;2.33;0.63;;;;;;;;;;6259758;22;20106;-61
2023/11/03 12:00:17;;;;;;;3.45;0.60;;;;;;;;;;6285928;22;20078;-66
2023/11/03 12:02:48;;;;;;;1.98;0.60;;;;;;;;;;6255489;22;19999;-68
2023/11/03 12:05:16;;;;;;;1.60;0.45;;;;;;;;;;6286855;22;20075;-69
2023/11/03 12:07:44;;;;;;;1.48;0.50;;;;;;;;;;6282069;22;19995;-67
2023/11/03 12:10:09;;;;;;;1.90;0.60;;;;;;;;;;6283196;22;20652;-68
2023/11/03 12:12:34;;;;;;;1.42;0.50;;;;;;;;;;6252845;22;20004;-67
2023/11/03 12:15:01;;;;;;;1.48;0.40;;;;;;;;;;6255649;22;20018;-67
2023/11/03 12:17:26;;;;;;;1.30;0.40;;;;;;;;;;6283253;22;20002;-68
2023/11/03 12:19:51;;;;;;;1.30;0.33;;;;;;;;;;6253718;22;20380;-65
2023/11/03 12:22:21;;;;;;;1.48;0.40;;;;;;;;;;6257777;22;20225;-67
2023/11/03 12:24:53;;;;;;;0.77;0.30;;;;;;;;;;6283443;22;20069;-67
2023/11/03 12:27:19;;;;;;;1.73;0.30;;;;;;;;;;6257041;22;19999;-67
2023/11/03 12:29:44;;;;;;;2.47;0.43;;;;;;;;;;6283724;22;20054;-67
2023/11/03 12:32:11;;;;;;;0.80;0.30;;;;;;;;;;6283886;22;20608;-67
2023/11/03 12:34:37;;;;;;;0.90;0.30;;;;;;;;;;6252455;22;20014;-67
2023/11/03 12:37:04;;;;;;;2.15;0.70;;;;;;;;;;6282063;22;20077;-67
2023/11/03 12:39:30;;;;;;;3.42;0.70;;;;;;;;;;6285262;22;20036;-67
2023/11/03 12:42:01;;;;;;;5.25;0.98;;;;;;;;;;6256240;22;20516;-68
2023/11/03 12:44:26;;;;;;;2.83;0.90;;;;;;;;;;6286804;22;20026;-68
2023/11/03 12:46:54;;;;;;;3.30;0.90;;;;;;;;;;6255934;22;20107;-67
2023/11/03 12:49:21;;;;;;;3.00;1.00;;;;;;;;;;6283587;22;20365;-68
2023/11/03 12:51:47;;;;;;;4.18;1.00;;;;;;;;;;6256592;22;20306;-68
2023/11/03 12:54:14;;;;;;;2.13;0.50;;;;;;;;;;6253020;22;20441;-67
2023/11/03 12:56:45;;;;;;;1.73;0.50;;;;;;;;;;6285905;22;20010;-68
2023/11/03 12:59:13;;;;;;;1.13;0.40;;;;;;;;;;6255582;22;20007;-68
2023/11/03 13:01:39;;;;;;;1.40;0.40;;;;;;;;;;6259437;22;20007;-68
2023/11/03 13:04:07;;;;;;;1.98;0.40;;;;;;;;;;6257215;22;20007;-67
2023/11/03 13:06:34;;;;;;;1.65;0.40;;;;;;;;;;6257388;22;19999;-68
2023/11/03 13:08:59;;;;;;;0.55;0.22;;;;;;;;;;6285882;22;20078;-67
2023/11/03 13:11:24;;;;;;;1.70;0.40;;;;;;;;;;6254055;22;20091;-65
2023/11/03 13:13:52;;;;;;;1.67;0.50;;;;;;;;;;6285087;22;19995;-67
2023/11/03 13:16:18;;;;;;;2.13;0.68;;;;;;;;;;6256512;22;20007;-66
2023/11/03 13:18:43;;;;;;;2.17;0.63;;;;;;;;;;6258339;22;20011;-66
2023/11/03 13:21:11;;;;;;;2.67;0.80;;;;;;;;;;6283850;22;20075;-66
2023/11/03 13:23:36;;;;;;;1.40;0.50;;;;;;;;;;6285427;22;20225;-66
2023/11/03 13:26:02;;;;;;;3.17;0.60;;;;;;;;;;6256438;22;20003;-66
2023/11/03 13:28:27;;;;;;;2.58;0.70;;;;;;;;;;6283899;22;19995;-65
2023/11/03 13:30:52;;;;;;;2.13;0.77;;;;;;;;;;6259325;22;20098;-65
2023/11/03 13:33:19;;;;;;;2.45;0.60;;;;;;;;;;6289373;22;20002;-66
2023/11/03 13:35:46;;;;;;;1.02;0.40;;;;;;;;;;6262593;22;20003;-66
2023/11/03 13:38:14;;;;;;;1.45;0.50;;;;;;;;;;6258487;22;20290;-63
2023/11/03 13:40:43;;;;;;;2.00;0.60;;;;;;;;;;6285958;22;20219;-66
2023/11/03 13:43:08;;;;;;;0.77;0.32;;;;;;;;;;6258940;22;19999;-67
2023/11/03 13:45:34;;;;;;;2.35;0.70;;;;;;;;;;6283761;22;20006;-66
2023/11/03 13:47:59;;;;;;;2.33;0.60;;;;;;;;;;6286092;22;20328;-67
2023/11/03 13:50:24;;;;;;;1.47;0.47;;;;;;;;;;6259929;22;20007;-65
2023/11/03 13:52:50;;;;;;;1.35;0.50;;;;;;;;;;6286652;22;20217;-65
2023/11/03 13:55:20;;;;;;;2.22;0.63;;;;;;;;;;6258014;22;20037;-65
2023/11/03 13:57:47;;;;;;;2.10;0.70;;;;;;;;;;6259837;22;20428;-65
2023/11/03 14:00:12;;;;;;;1.25;0.43;;;;;;;;;;6285062;22;20007;-66
2023/11/03 14:02:38;;;;;;;2.33;0.60;;;;;;;;;;6257966;22;20105;-66
2023/11/03 14:05:05;;;;;;;2.63;0.60;;;;;;;;;;6287222;22;20075;-66
2023/11/03 14:07:31;;;;;;;1.77;0.38;;;;;;;;;;6285887;22;20027;-66
2023/11/03 14:09:58;;;;;;;4.90;0.70;;;;;;;;;;6285940;22;20030;-66
2023/11/03 14:12:26;;;;;;;1.52;0.50;;;;;;;;;;6256212;22;19999;-65
2023/11/03 14:14:54;;;;;;;2.58;0.50;;;;;;;;;;6259099;22;20566;-65
2023/11/03 14:17:20;;;;;;;2.42;0.70;;;;;;;;;;6284451;22;20027;-65
2023/11/03 14:19:46;;;;;;;2.38;0.80;;;;;;;;;;6286491;22;20412;-66
2023/11/03 14:22:12;;;;;;;2.08;0.70;;;;;;;;;;6256195;22;19999;-66
2023/11/03 14:24:42;;;;;;;4.45;1.00;;;;;;;;;;6284899;22;20003;-66
2023/11/03 14:27:08;;;;;;;3.45;1.10;;;;;;;;;;6255811;22;20000;-66
2023/11/03 14:29:36;;;;;;;4.45;1.70;;;;;;;;;;6256034;22;20026;-65
2023/11/03 14:32:04;;;;;;;5.90;2.80;;;;;;;;;;6286114;22;20106;-66
2023/11/03 14:34:30;;;;;;;5.13;2.17;;;;;;;;;;6282758;22;19999;-65
2023/11/03 14:36:55;;;;;;;3.47;1.25;;;;;;;;;;6256217;22;20010;-66
2023/11/03 14:39:22;;;;;;;3.35;0.95;;;;;;;;;;6279504;22;20439;-64